createdAt,value
2023-03-06T00:01:01.211Z,6.33
2023-03-06T00:04:03.041Z,5.60
2023-03-06T00:07:04.817Z,6.80
2023-03-06T00:10:06.886Z,6.93
2023-03-06T00:13:12.961Z,6.17
2023-03-06T00:16:14.935Z,6.33
2023-03-06T00:19:16.682Z,5.87
2023-03-06T00:22:19.092Z,9.80
2023-03-06T00:25:21.823Z,8.30
2023-03-06T00:28:23.602Z,8.33
2023-03-06T00:31:25.365Z,7.03
2023-03-06T00:34:27.320Z,7.13
2023-03-06T00:37:29.052Z,7.20
2023-03-06T00:40:30.858Z,10.07
2023-03-06T00:43:32.620Z,6.90
2023-03-06T00:46:34.374Z,8.00
2023-03-06T00:49:37.564Z,7.30
2023-03-06T00:52:39.491Z,6.00
2023-03-06T00:55:45.258Z,7.60
2023-03-06T00:58:46.972Z,9.27
2023-03-06T01:01:48.739Z,8.10
2023-03-06T01:04:50.588Z,8.13
2023-03-06T01:07:52.322Z,9.57
2023-03-06T01:10:54.381Z,8.50
2023-03-06T01:13:56.112Z,7.20
2023-03-06T01:16:58.288Z,5.27
2023-03-06T01:20:00.128Z,7.80
2023-03-06T01:23:01.956Z,5.10
2023-03-06T01:26:04.177Z,6.57
2023-03-06T01:29:06.344Z,6.67
2023-03-06T01:32:08.260Z,6.83
2023-03-06T01:35:11.250Z,7.20
2023-03-06T01:38:13.326Z,8.37
2023-03-06T01:41:15.979Z,7.73
2023-03-06T01:44:17.849Z,8.37
2023-03-06T01:47:19.570Z,8.63
2023-03-06T01:50:21.357Z,8.03
2023-03-06T01:53:23.198Z,7.07
2023-03-06T01:56:25.625Z,8.47
2023-03-06T01:59:28.768Z,8.10
2023-03-06T02:02:30.988Z,10.47
2023-03-06T02:05:33.639Z,7.23
2023-03-06T02:08:36.084Z,9.10
2023-03-06T02:11:37.897Z,11.40
2023-03-06T02:14:41.209Z,6.93
2023-03-06T02:17:45.684Z,9.80
2023-03-06T02:20:52.852Z,9.30
2023-03-06T02:24:08.535Z,11.57
2023-03-06T02:27:14.210Z,11.80
2023-03-06T02:30:17.632Z,11.77
2023-03-06T02:33:23.221Z,10.03
2023-03-06T02:36:24.976Z,12.50
2023-03-06T02:39:29.773Z,10.67
2023-03-06T02:42:31.730Z,7.57
2023-03-06T02:45:45.178Z,9.00
2023-03-06T02:48:47.085Z,12.60
2023-03-06T02:51:48.806Z,9.53
2023-03-06T02:54:50.534Z,7.73
2023-03-06T02:57:52.443Z,10.17
2023-03-06T03:00:54.559Z,6.80
2023-03-06T03:03:56.549Z,14.10
2023-03-06T03:06:58.879Z,8.83
2023-03-06T03:10:00.667Z,10.43
2023-03-06T03:13:02.606Z,8.23
2023-03-06T03:16:07.599Z,8.73
2023-03-06T03:19:09.469Z,12.37
2023-03-06T03:22:11.246Z,9.03
2023-03-06T03:25:13.047Z,10.13
2023-03-06T03:28:14.911Z,10.13
2023-03-06T03:31:17.159Z,8.00
2023-03-06T03:34:19.326Z,10.40
2023-03-06T03:37:22.361Z,8.23
2023-03-06T03:40:24.162Z,7.70
2023-03-06T03:43:26.537Z,7.73
2023-03-06T03:46:30.168Z,9.73
2023-03-06T03:49:32.589Z,9.50
2023-03-06T03:52:35.816Z,8.60
2023-03-06T03:55:37.837Z,9.87
2023-03-06T03:58:39.664Z,6.37
2023-03-06T04:01:41.452Z,7.80
2023-03-06T04:04:43.609Z,12.60
2023-03-06T04:07:46.160Z,7.43
2023-03-06T04:10:48.665Z,7.63
2023-03-06T04:13:52.466Z,10.30
2023-03-06T04:16:54.376Z,7.57
2023-03-06T04:19:56.379Z,6.50
2023-03-06T04:22:58.597Z,8.33
2023-03-06T04:26:00.871Z,10.80
2023-03-06T04:29:03.748Z,7.10
2023-03-06T04:32:06.383Z,8.70
2023-03-06T04:35:08.899Z,9.17
2023-03-06T04:38:18.280Z,11.17
2023-03-06T04:41:20.588Z,12.13
2023-03-06T04:44:22.410Z,11.73
2023-03-06T04:47:24.303Z,9.70
2023-03-06T04:50:28.098Z,10.20
2023-03-06T04:53:29.887Z,9.90
2023-03-06T04:56:34.324Z,7.37
2023-03-06T04:59:38.840Z,11.53
2023-03-06T05:02:43.515Z,12.33
2023-03-06T05:05:45.411Z,9.50
2023-03-06T05:08:47.588Z,10.23
2023-03-06T05:11:49.381Z,12.03
2023-03-06T05:14:51.141Z,11.40
2023-03-06T05:17:52.982Z,8.90
2023-03-06T05:20:59.396Z,7.23
2023-03-06T05:24:01.171Z,9.07
2023-03-06T05:27:02.962Z,7.27
2023-03-06T05:30:05.294Z,10.47
2023-03-06T05:33:07.060Z,9.27
2023-03-06T05:36:09.766Z,7.83
2023-03-06T05:39:11.512Z,12.97
2023-03-06T05:42:13.355Z,10.40
2023-03-06T05:45:15.257Z,8.27
2023-03-06T05:48:17.125Z,10.67
2023-03-06T05:51:19.244Z,9.23
2023-03-06T05:54:21.261Z,13.00
2023-03-06T05:57:24.549Z,11.57
2023-03-06T06:00:26.583Z,11.80
2023-03-06T06:03:28.567Z,11.07
2023-03-06T06:06:30.401Z,14.57
2023-03-06T06:09:32.481Z,11.80
2023-03-06T06:12:34.494Z,10.83
2023-03-06T06:15:38.641Z,11.30
2023-03-06T06:18:41.413Z,12.87
2023-03-06T06:21:43.325Z,11.13
2023-03-06T06:24:46.175Z,12.17
2023-03-06T06:27:48.473Z,10.00
2023-03-06T06:30:50.233Z,12.00
2023-03-06T06:33:52.006Z,12.47
2023-03-06T06:36:54.506Z,10.53
2023-03-06T06:39:56.436Z,11.43
2023-03-06T06:42:58.229Z,9.33
2023-03-06T06:46:24.571Z,9.57
2023-03-06T06:49:21.823Z,11.03
2023-03-06T06:52:24.712Z,8.67
2023-03-06T06:55:27.096Z,9.07
2023-03-06T06:58:28.846Z,11.43
2023-03-06T07:01:30.975Z,20.60
2023-03-06T07:04:33.119Z,11.60
2023-03-06T07:07:36.987Z,8.70
2023-03-06T07:10:41.607Z,14.20
2023-03-06T07:13:44.376Z,13.07
2023-03-06T07:16:46.262Z,13.57
2023-03-06T07:19:48.546Z,11.83
2023-03-06T07:22:52.033Z,13.20
2023-03-06T07:25:55.023Z,12.13
2023-03-06T07:28:56.955Z,13.40
2023-03-06T07:31:59.129Z,17.03
2023-03-06T07:35:19.019Z,19.30
2023-03-06T07:38:21.785Z,13.90
2023-03-06T07:41:23.552Z,17.80
2023-03-06T07:44:25.437Z,14.60
2023-03-06T07:47:27.200Z,15.37
2023-03-06T07:50:29.099Z,18.93
2023-03-06T07:53:31.755Z,17.00
2023-03-06T07:56:35.012Z,18.60
2023-03-06T07:59:36.944Z,19.03
2023-03-06T08:02:39.027Z,17.90
2023-03-06T08:05:40.975Z,17.57
2023-03-06T08:08:44.465Z,20.43
2023-03-06T08:11:46.296Z,18.37
2023-03-06T08:14:48.135Z,21.30
2023-03-06T08:17:50.353Z,20.90
2023-03-06T08:21:04.991Z,22.07
2023-03-06T08:24:08.300Z,22.90
2023-03-06T08:27:10.331Z,17.27
2023-03-06T08:30:12.782Z,18.13
2023-03-06T08:33:14.554Z,18.10
2023-03-06T08:36:16.312Z,17.30
2023-03-06T08:39:18.352Z,18.23
2023-03-06T08:42:20.185Z,15.30
2023-03-06T08:45:22.026Z,15.07
2023-03-06T08:48:23.880Z,15.97
2023-03-06T08:51:26.612Z,16.10
2023-03-06T08:54:28.373Z,18.97
2023-03-06T08:57:30.618Z,18.87
2023-03-06T09:00:33.530Z,18.37
2023-03-06T09:03:35.357Z,17.13
2023-03-06T09:06:41.046Z,13.33
2023-03-06T09:09:42.832Z,11.00
2023-03-06T09:12:50.111Z,10.80
2023-03-06T09:15:52.622Z,10.63
2023-03-06T09:18:54.575Z,13.40
2023-03-06T09:21:57.827Z,10.20
2023-03-06T09:25:00.596Z,10.50
2023-03-06T09:28:11.330Z,8.23
2023-03-06T09:31:19.086Z,8.10
2023-03-06T09:34:20.997Z,11.30
2023-03-06T09:37:23.392Z,8.63
2023-03-06T09:40:55.129Z,10.53
2023-03-06T09:44:04.906Z,7.87
2023-03-06T09:47:43.891Z,8.57
2023-03-06T09:50:58.889Z,8.57
2023-03-06T09:54:15.376Z,8.70
2023-03-06T09:57:26.001Z,10.57
2023-03-06T10:00:31.137Z,8.73
2023-03-06T10:03:57.854Z,6.80
2023-03-06T10:07:07.334Z,9.00
2023-03-06T10:10:20.017Z,7.60
2023-03-06T10:13:43.693Z,8.07
2023-03-06T10:16:45.669Z,15.83
2023-03-06T10:19:47.663Z,8.17
2023-03-06T10:23:03.169Z,10.27
2023-03-06T10:26:22.616Z,8.40
2023-03-06T10:29:33.508Z,6.50
2023-03-06T10:32:48.202Z,9.37
2023-03-06T10:35:53.592Z,8.93
2023-03-06T10:38:57.910Z,7.53
2023-03-06T10:41:59.839Z,8.17
2023-03-06T10:45:12.519Z,12.83
2023-03-06T10:48:20.278Z,10.20
2023-03-06T10:51:24.643Z,8.77
2023-03-06T10:54:27.369Z,10.30
2023-03-06T10:57:32.722Z,10.03
2023-03-06T11:00:41.522Z,7.00
2023-03-06T11:03:43.479Z,7.90
2023-03-06T11:06:45.593Z,12.20
2023-03-06T11:10:13.817Z,8.73
2023-03-06T11:13:23.403Z,8.83
2023-03-06T11:16:33.233Z,7.47
2023-03-06T11:19:35.071Z,7.13
2023-03-06T11:22:39.194Z,6.43
2023-03-06T11:25:50.627Z,8.07
2023-03-06T11:29:26.065Z,7.17
2023-03-06T11:32:45.772Z,4.77
2023-03-06T11:35:59.937Z,3.73
2023-03-06T11:39:04.474Z,5.07
2023-03-06T11:42:29.265Z,5.50
2023-03-06T11:45:45.019Z,7.07
2023-03-06T11:48:53.245Z,4.27
2023-03-06T11:51:58.619Z,7.43
2023-03-06T11:55:00.315Z,4.23
2023-03-06T11:58:13.645Z,4.03
2023-03-06T12:01:41.235Z,5.40
2023-03-06T12:05:21.210Z,5.90
2023-03-06T12:08:41.740Z,5.27
2023-03-06T12:12:02.381Z,5.33
2023-03-06T12:15:14.631Z,4.70
2023-03-06T12:18:31.217Z,4.77
2023-03-06T12:21:58.303Z,5.83
2023-03-06T12:25:26.359Z,4.27
2023-03-06T12:28:34.186Z,7.37
2023-03-06T12:31:36.058Z,6.03
2023-03-06T12:35:01.373Z,7.07
2023-03-06T12:38:36.606Z,4.27
2023-03-06T12:41:43.122Z,6.10
2023-03-06T12:45:04.010Z,5.17
2023-03-06T12:48:19.229Z,4.00
2023-03-06T12:51:21.548Z,5.77
2023-03-06T12:54:27.428Z,5.03
2023-03-06T12:57:29.894Z,6.10
2023-03-06T13:00:35.045Z,6.53
2023-03-06T13:03:45.772Z,6.53
2023-03-06T13:07:31.820Z,4.97
2023-03-06T13:10:36.137Z,5.30
2023-03-06T13:13:46.993Z,3.03
2023-03-06T13:16:49.094Z,4.03
2023-03-06T13:20:30.409Z,3.83
2023-03-06T13:23:35.654Z,4.67
2023-03-06T13:26:37.592Z,3.90
2023-03-06T13:29:39.292Z,4.37
2023-03-06T13:32:41.218Z,4.20
2023-03-06T13:35:48.277Z,3.83
2023-03-06T13:38:52.902Z,1.60
2023-03-06T13:42:00.352Z,1.30
2023-03-06T13:45:24.984Z,1.70
2023-03-06T13:48:45.183Z,2.03
2023-03-06T13:51:53.819Z,2.50
2023-03-06T13:55:04.522Z,2.30
2023-03-06T13:58:43.433Z,3.23
2023-03-06T14:02:12.965Z,2.47
2023-03-06T14:05:17.068Z,2.23
2023-03-06T14:08:31.501Z,3.83
2023-03-06T14:11:35.756Z,2.93
2023-03-06T14:14:44.748Z,1.27
2023-03-06T14:18:13.345Z,0.83
2023-03-06T14:21:30.858Z,1.53
2023-03-06T14:24:43.477Z,4.83
2023-03-06T14:27:51.960Z,0.90
2023-03-06T14:30:56.034Z,0.73
2023-03-06T14:34:04.769Z,3.27
2023-03-06T14:37:18.424Z,1.27
2023-03-06T14:40:31.516Z,1.03
2023-03-06T14:43:33.425Z,1.13
2023-03-06T14:46:35.304Z,0.90
2023-03-06T14:49:37.157Z,0.93
2023-03-06T14:52:39.596Z,1.80
2023-03-06T14:55:53.908Z,1.13
2023-03-06T14:59:01.361Z,1.13
2023-03-06T15:02:06.533Z,0.80
2023-03-06T15:05:24.280Z,1.67
2023-03-06T15:08:31.960Z,1.47
2023-03-06T15:11:55.286Z,1.67
2023-03-06T15:15:28.851Z,1.27
2023-03-06T15:18:38.768Z,0.67
2023-03-06T15:21:40.644Z,0.73
2023-03-06T15:24:42.716Z,0.73
2023-03-06T15:28:09.588Z,0.90
2023-03-06T15:31:16.619Z,2.50
2023-03-06T15:34:24.258Z,0.87
2023-03-06T15:37:28.675Z,0.70
2023-03-06T15:40:32.152Z,0.30
2023-03-06T15:43:39.726Z,1.00
2023-03-06T15:46:41.927Z,0.70
2023-03-06T15:49:43.848Z,1.37
2023-03-06T15:52:46.657Z,0.60
2023-03-06T15:55:49.271Z,0.63
2023-03-06T15:58:53.749Z,0.60
2023-03-06T16:01:55.667Z,1.30
2023-03-06T16:04:57.412Z,1.47
2023-03-06T16:07:59.180Z,2.17
2023-03-06T16:11:01.029Z,4.33
2023-03-06T16:14:02.878Z,1.63
2023-03-06T16:17:04.724Z,1.00
2023-03-06T16:20:09.698Z,0.67
2023-03-06T16:23:11.787Z,19.73
2023-03-06T16:26:22.807Z,9.40
2023-03-06T16:29:27.130Z,5.60
2023-03-06T16:32:29.175Z,4.37
2023-03-06T16:35:31.034Z,3.17
2023-03-06T16:38:32.897Z,3.20
2023-03-06T16:41:34.625Z,1.97
2023-03-06T16:44:36.573Z,2.87
2023-03-06T16:47:38.501Z,3.10
2023-03-06T16:50:40.800Z,1.27
2023-03-06T16:53:43.486Z,1.43
2023-03-06T16:56:46.839Z,4.30
2023-03-06T16:59:57.875Z,5.73
2023-03-06T17:03:01.823Z,5.50
2023-03-06T17:06:04.649Z,8.83
2023-03-06T17:09:06.714Z,8.20
2023-03-06T17:12:09.009Z,14.00
2023-03-06T17:15:11.801Z,14.00
2023-03-06T17:18:14.083Z,10.27
2023-03-06T17:21:15.891Z,11.27
2023-03-06T17:24:17.722Z,9.07
2023-03-06T17:27:21.989Z,7.03
2023-03-06T17:30:23.830Z,5.80
2023-03-06T17:33:25.619Z,7.53
2023-03-06T17:36:31.624Z,7.67
2023-03-06T17:39:35.343Z,9.10
2023-03-06T17:42:37.174Z,8.50
2023-03-06T17:45:39.032Z,9.13
2023-03-06T17:48:40.892Z,9.00
2023-03-06T17:51:42.665Z,7.30
2023-03-06T17:54:44.827Z,8.93
2023-03-06T17:57:46.604Z,9.87
2023-03-06T18:00:48.411Z,8.67
2023-03-06T18:03:51.513Z,9.13
2023-03-06T18:06:53.362Z,13.27
2023-03-06T18:09:56.510Z,11.23
2023-03-06T18:12:58.291Z,9.93
2023-03-06T18:16:05.379Z,13.67
2023-03-06T18:19:08.222Z,13.93
2023-03-06T18:22:10.024Z,14.10
2023-03-06T18:25:11.856Z,19.97
2023-03-06T18:28:13.660Z,20.23
2023-03-06T18:31:20.070Z,20.73
2023-03-06T18:34:21.900Z,22.60
2023-03-06T18:37:24.072Z,21.57
2023-03-06T18:40:25.935Z,21.33
2023-03-06T18:43:29.840Z,21.33
2023-03-06T18:46:34.356Z,22.30
2023-03-06T18:49:37.487Z,23.57
2023-03-06T18:52:40.936Z,23.43
2023-03-06T18:55:52.686Z,20.67
2023-03-06T18:58:54.954Z,24.07
2023-03-06T19:01:57.768Z,28.73
2023-03-06T19:05:02.704Z,20.13
2023-03-06T19:08:04.684Z,27.37
2023-03-06T19:11:12.286Z,25.43
2023-03-06T19:14:14.933Z,21.07
2023-03-06T19:17:16.858Z,23.23
2023-03-06T19:20:18.775Z,21.73
2023-03-06T19:23:21.462Z,24.73
2023-03-06T19:26:23.728Z,25.10
2023-03-06T19:29:25.563Z,29.03
2023-03-06T19:32:27.639Z,23.70
2023-03-06T19:35:29.588Z,21.77
2023-03-06T19:38:31.570Z,23.83
2023-03-06T19:41:34.229Z,24.63
2023-03-06T19:44:36.723Z,25.03
2023-03-06T19:47:38.544Z,25.30
2023-03-06T19:50:40.699Z,25.90
2023-03-06T19:53:42.443Z,22.30
2023-03-06T19:56:44.268Z,31.40
2023-03-06T19:59:53.538Z,23.53
2023-03-06T20:02:55.926Z,22.53
2023-03-06T20:05:57.763Z,25.30
2023-03-06T20:09:01.948Z,35.10
2023-03-06T20:12:06.006Z,29.87
2023-03-06T20:15:10.382Z,30.63
2023-03-06T20:18:12.806Z,26.50
2023-03-06T20:21:15.635Z,24.37
2023-03-06T20:24:19.856Z,26.40
2023-03-06T20:27:21.868Z,24.83
2023-03-06T20:30:24.311Z,27.13
2023-03-06T20:33:27.811Z,24.37
2023-03-06T20:36:32.650Z,22.07
2023-03-06T20:39:37.565Z,24.50
2023-03-06T20:42:41.551Z,22.83
2023-03-06T20:45:43.399Z,23.83
2023-03-06T20:48:49.070Z,25.47
2023-03-06T20:51:53.342Z,30.83
2023-03-06T20:54:55.175Z,23.20
2023-03-06T20:57:56.969Z,28.17
2023-03-06T21:01:00.811Z,23.47
2023-03-06T21:04:04.582Z,23.20
2023-03-06T21:07:06.762Z,21.33
2023-03-06T21:10:09.872Z,22.37
2023-03-06T21:13:11.681Z,18.57
2023-03-06T21:16:19.387Z,26.13
2023-03-06T21:19:24.044Z,22.47
2023-03-06T21:22:26.250Z,21.67
2023-03-06T21:25:29.100Z,24.20
2023-03-06T21:28:31.112Z,23.83
2023-03-06T21:31:34.183Z,24.13
2023-03-06T21:34:36.036Z,21.40
2023-03-06T21:37:38.703Z,26.53
2023-03-06T21:40:40.906Z,22.50
2023-03-06T21:43:44.257Z,24.43
2023-03-06T21:46:47.118Z,26.13
2023-03-06T21:49:49.720Z,28.03
2023-03-06T21:52:52.427Z,22.87
2023-03-06T21:55:54.204Z,29.70
2023-03-06T21:58:58.001Z,30.50
2023-03-06T22:01:59.759Z,28.23
2023-03-06T22:05:01.565Z,27.57
2023-03-06T22:08:06.384Z,31.13
2023-03-06T22:11:20.671Z,25.13
2023-03-06T22:14:22.657Z,32.30
2023-03-06T22:17:25.084Z,26.70
2023-03-06T22:20:31.739Z,26.63
2023-03-06T22:23:35.616Z,24.10
2023-03-06T22:26:37.433Z,29.87
2023-03-06T22:29:39.236Z,29.63
2023-03-06T22:32:42.698Z,33.47
2023-03-06T22:35:48.167Z,25.77
2023-03-06T22:38:54.592Z,28.90
2023-03-06T22:41:56.575Z,37.10
2023-03-06T22:44:58.403Z,26.70
2023-03-06T22:48:10.347Z,27.40
2023-03-06T22:51:18.826Z,28.13
2023-03-06T22:54:26.496Z,32.83
2023-03-06T22:57:28.291Z,30.27
2023-03-06T23:00:30.175Z,34.77
2023-03-06T23:03:32.144Z,29.40
2023-03-06T23:06:36.388Z,30.60
2023-03-06T23:09:38.093Z,37.07
2023-03-06T23:12:58.182Z,34.77
2023-03-06T23:16:18.637Z,35.30
2023-03-06T23:19:39.083Z,31.33
2023-03-06T23:22:59.525Z,34.00
2023-03-06T23:26:17.644Z,33.90
2023-03-06T23:29:19.343Z,33.17
2023-03-06T23:32:21.230Z,35.77
2023-03-06T23:35:22.994Z,37.20
2023-03-06T23:38:24.736Z,39.93
2023-03-06T23:41:26.488Z,35.80
2023-03-06T23:44:28.388Z,37.87
2023-03-06T23:47:33.872Z,37.77
2023-03-06T23:50:35.611Z,37.60
2023-03-06T23:53:37.287Z,40.87
2023-03-06T23:56:39.527Z,29.37
2023-03-06T23:59:45.184Z,37.00
